Time;durP1;ratioP1;P1;durP2;ratioP2;P2;SDS_P1;SDS_P2;PMS_P1;PMS_P2;Temp;Humidity;BMP_temperature;BMP_pressure;BME280_temperature;BME280_humidity;BME280_pressure;Samples;Min_cycle;Max_cycle;Signal;HPM_P1;HPM_P2
2022/12/30 00:01:52;;;;;;;;;;;17.50;51.10;;;;;;5073453;28;20297;-52
2022/12/30 00:04:18;;;;;;;;;;;17.50;51.20;;;;;;5074960;28;19999;-52
2022/12/30 00:06:43;;;;;;;;;;;17.40;51.20;;;;;;5074521;28;19912;-52
2022/12/30 00:09:08;;;;;;;;;;;17.40;52.00;;;;;;5074523;28;19920;-53
2022/12/30 00:11:34;;;;;;;;;;;17.40;51.30;;;;;;5061814;28;19924;-53
2022/12/30 00:33:28;;;;;;;;;;;17.20;51.70;;;;;;5062771;28;20012;-53
2022/12/30 00:35:53;;;;;;;;;;;17.20;51.80;;;;;;5073918;28;20011;-54
2022/12/30 00:38:19;;;;;;;;;;;17.10;51.70;;;;;;5074394;28;19959;-53
2022/12/30 00:43:07;;;;;;;;;;;17.10;51.80;;;;;;5071296;28;19924;-52
2022/12/30 00:43:29;;;;;;;;;;;17.10;51.80;;;;;;5069972;28;19935;-52
2022/12/30 00:45:55;;;;;;;;;;;17.00;52.00;;;;;;5074424;28;19908;-53
2022/12/30 00:56:34;;;;;;;;;;;16.90;52.20;;;;;;5073621;28;20386;-52
2022/12/30 00:58:59;;;;;;;;;;;16.90;52.10;;;;;;5073867;28;20002;-52
2022/12/30 01:01:24;;;;;;;;;;;16.90;52.20;;;;;;5073874;28;20392;-52
2022/12/30 01:03:50;;;;;;;;;;;16.90;52.30;;;;;;5073454;28;19931;-52
2022/12/30 01:06:15;;;;;;;;;;;16.80;52.20;;;;;;5072508;28;19913;-52
2022/12/30 01:08:41;;;;;;;;;;;16.80;52.30;;;;;;5073134;28;19912;-53
2022/12/30 01:11:09;;;;;;;;;;;16.80;52.30;;;;;;5072902;28;20132;-52
2022/12/30 01:13:35;;;;;;;;;;;16.80;52.30;;;;;;5073355;28;19917;-52
2022/12/30 01:16:08;;;;;;;;;;;16.80;52.40;;;;;;5075008;28;20387;-52
2022/12/30 01:18:33;;;;;;;;;;;16.70;52.30;;;;;;5074428;28;19916;-52
2022/12/30 01:20:59;;;;;;;;;;;16.70;52.20;;;;;;5063367;28;20434;-53
2022/12/30 01:23:24;;;;;;;;;;;16.70;52.40;;;;;;5073519;28;19920;-53
2022/12/30 01:25:50;;;;;;;;;;;16.70;52.30;;;;;;5072244;28;20378;-52
2022/12/30 01:28:15;;;;;;;;;;;16.60;52.40;;;;;;5071951;28;20007;-51
2022/12/30 01:30:41;;;;;;;;;;;16.70;52.40;;;;;;5072669;28;19948;-52
2022/12/30 01:33:06;;;;;;;;;;;16.60;52.30;;;;;;5069242;28;19917;-52
2022/12/30 01:35:32;;;;;;;;;;;16.60;52.40;;;;;;5072716;28;19909;-52
2022/12/30 01:37:57;;;;;;;;;;;16.60;52.40;;;;;;5066748;28;19970;-52
2022/12/30 01:40:22;;;;;;;;;;;16.60;52.50;;;;;;5052975;28;19912;-52
2022/12/30 01:42:48;;;;;;;;;;;16.60;52.50;;;;;;5061399;28;19916;-51
2022/12/30 01:45:15;;;;;;;;;;;16.60;52.50;;;;;;5073050;28;19908;-54
2022/12/30 01:47:48;;;;;;;;;;;16.60;52.50;;;;;;5105077;28;20393;-52
2022/12/30 01:50:18;;;;;;;;;;;16.50;52.50;;;;;;5073069;28;20341;-52
2022/12/30 01:52:46;;;;;;;;;;;16.50;52.50;;;;;;5070963;28;19916;-54
2022/12/30 01:55:13;;;;;;;;;;;16.50;52.60;;;;;;5071952;28;19913;-54
2022/12/30 01:57:39;;;;;;;;;;;16.50;52.60;;;;;;5104758;28;19912;-54
2022/12/30 02:00:05;;;;;;;;;;;16.40;52.60;;;;;;5104708;28;19916;-54
2022/12/30 02:02:30;;;;;;;;;;;16.50;52.70;;;;;;5071961;28;19927;-53
2022/12/30 02:04:56;;;;;;;;;;;16.50;52.70;;;;;;5068088;28;19916;-54
2022/12/30 02:07:25;;;;;;;;;;;16.40;52.60;;;;;;5071622;28;19956;-54
2022/12/30 02:09:51;;;;;;;;;;;16.50;52.40;;;;;;5071272;28;19958;-54
2022/12/30 02:12:16;;;;;;;;;;;16.50;52.40;;;;;;5104331;28;19921;-52
2022/12/30 02:14:41;;;;;;;;;;;16.50;52.20;;;;;;5071671;28;19913;-52
2022/12/30 02:17:13;;;;;;;;;;;16.70;52.20;;;;;;5071436;28;19912;-52
2022/12/30 02:19:57;;;;;;;;;;;16.90;52.00;;;;;;5071202;28;20031;-52
2022/12/30 02:22:31;;;;;;;;;;;17.30;51.20;;;;;;5071274;28;20319;-52
2022/12/30 02:25:08;;;;;;;;;;;17.70;50.30;;;;;;5070962;28;19913;-53
2022/12/30 02:27:53;;;;;;;;;;;18.00;49.60;;;;;;5104190;28;19916;-52
2022/12/30 02:30:22;;;;;;;;;;;18.40;48.90;;;;;;5071461;28;19932;-53
2022/12/30 02:32:48;;;;;;;;;;;19.00;47.40;;;;;;5086323;28;19912;-52
2022/12/30 02:35:21;;;;;;;;;;;19.50;46.50;;;;;;5082038;28;19920;-52
2022/12/30 02:37:46;;;;;;;;;;;20.00;45.70;;;;;;5067784;28;19920;-52
2022/12/30 02:44:36;;;;;;;;;;;20.40;44.80;;;;;;5068017;28;20360;-53
2022/12/30 02:46:00;;;;;;;;;;;21.20;43.50;;;;;;5071603;28;19939;-52
2022/12/30 02:48:27;;;;;;;;;;;21.40;43.10;;;;;;5069933;28;19948;-52
2022/12/30 02:53:37;;;;;;;;;;;21.40;43.20;;;;;;5068180;28;19935;-53
2022/12/30 02:56:03;;;;;;;;;;;21.00;43.60;;;;;;5069222;28;19912;-52
2022/12/30 02:58:30;;;;;;;;;;;20.70;44.20;;;;;;5072125;28;20418;-52
2022/12/30 03:04:05;;;;;;;;;;;20.30;45.00;;;;;;5074148;28;19959;-54
2022/12/30 03:06:39;;;;;;;;;;;20.10;45.50;;;;;;5066608;28;19917;-52
2022/12/30 03:09:07;;;;;;;;;;;20.00;45.80;;;;;;5070767;28;19913;-53
2022/12/30 03:11:35;;;;;;;;;;;19.90;46.10;;;;;;5069286;28;19966;-53
2022/12/30 03:14:21;;;;;;;;;;;19.80;46.10;;;;;;5102941;28;19920;-52
2022/12/30 03:16:54;;;;;;;;;;;19.80;46.20;;;;;;5071255;28;20372;-52
2022/12/30 03:19:20;;;;;;;;;;;19.70;46.40;;;;;;5097952;28;19962;-54
2022/12/30 03:21:46;;;;;;;;;;;19.60;46.60;;;;;;5099249;28;19921;-52
2022/12/30 03:27:03;;;;;;;;;;;19.50;46.70;;;;;;5097797;28;20295;-52
2022/12/30 03:29:29;;;;;;;;;;;19.40;46.90;;;;;;5070850;28;19915;-52
2022/12/30 03:31:55;;;;;;;;;;;19.30;47.10;;;;;;5068462;28;19942;-52
2022/12/30 03:34:20;;;;;;;;;;;19.30;47.20;;;;;;5071352;28;19913;-53
2022/12/30 03:36:46;;;;;;;;;;;19.20;47.20;;;;;;5071768;28;19908;-53
2022/12/30 03:39:32;;;;;;;;;;;19.20;47.50;;;;;;5067007;28;19978;-52
2022/12/30 03:41:57;;;;;;;;;;;19.10;47.50;;;;;;5054783;28;19912;-54
2022/12/30 03:44:23;;;;;;;;;;;19.10;47.70;;;;;;5071219;28;19920;-52
2022/12/30 03:46:48;;;;;;;;;;;19.10;47.70;;;;;;5071150;28;19912;-52
2022/12/30 03:49:14;;;;;;;;;;;19.00;47.90;;;;;;5064571;28;19956;-53
2022/12/30 03:51:39;;;;;;;;;;;19.00;47.90;;;;;;5071404;28;19962;-53
2022/12/30 03:54:05;;;;;;;;;;;18.90;47.90;;;;;;5071539;28;19912;-53
2022/12/30 03:56:30;;;;;;;;;;;18.90;48.10;;;;;;5070147;28;19909;-53
2022/12/30 03:58:55;;;;;;;;;;;18.90;48.10;;;;;;5071420;28;19912;-53
2022/12/30 04:01:21;;;;;;;;;;;18.80;48.20;;;;;;5074504;28;19909;-53
2022/12/30 04:03:46;;;;;;;;;;;18.90;48.10;;;;;;5073458;28;19924;-53
2022/12/30 04:06:12;;;;;;;;;;;18.80;48.10;;;;;;5071254;28;19919;-53
2022/12/30 04:08:37;;;;;;;;;;;18.80;48.20;;;;;;5074004;28;19991;-53
2022/12/30 04:11:03;;;;;;;;;;;18.70;48.10;;;;;;5073489;28;19974;-54
2022/12/30 04:13:28;;;;;;;;;;;18.70;48.40;;;;;;5073995;28;19912;-53
2022/12/30 04:15:54;;;;;;;;;;;18.70;48.60;;;;;;5071761;28;19913;-53
2022/12/30 04:18:19;;;;;;;;;;;18.70;48.30;;;;;;5074052;28;20332;-53
2022/12/30 04:20:45;;;;;;;;;;;18.70;48.40;;;;;;5069073;28;20490;-52
2022/12/30 04:23:11;;;;;;;;;;;18.70;48.40;;;;;;5086506;28;19912;-53
2022/12/30 04:25:36;;;;;;;;;;;18.70;48.40;;;;;;5081556;28;20549;-52
2022/12/30 04:28:02;;;;;;;;;;;18.80;48.10;;;;;;5064998;28;20703;-52
2022/12/30 04:30:27;;;;;;;;;;;19.10;47.70;;;;;;5065471;28;20284;-54
2022/12/30 04:32:52;;;;;;;;;;;19.20;47.40;;;;;;5074828;28;19952;-52
2022/12/30 04:35:18;;;;;;;;;;;19.30;47.20;;;;;;5072096;28;19913;-53
2022/12/30 04:37:43;;;;;;;;;;;19.50;46.90;;;;;;5073657;28;19923;-52
2022/12/30 04:40:09;;;;;;;;;;;19.50;46.70;;;;;;5072619;28;19962;-52
2022/12/30 04:42:34;;;;;;;;;;;19.60;46.40;;;;;;5073522;28;19917;-52
2022/12/30 04:45:00;;;;;;;;;;;19.60;46.50;;;;;;5070634;28;19917;-52
2022/12/30 04:47:25;;;;;;;;;;;19.50;46.70;;;;;;5072558;28;19935;-52
2022/12/30 04:49:51;;;;;;;;;;;19.50;46.80;;;;;;5074129;28;19908;-52
2022/12/30 04:52:16;;;;;;;;;;;19.40;47.00;;;;;;5067982;28;20372;-52
2022/12/30 04:54:41;;;;;;;;;;;19.30;47.20;;;;;;5066570;28;20022;-54
2022/12/30 04:57:07;;;;;;;;;;;19.20;47.50;;;;;;5072686;28;19917;-52
2022/12/30 04:59:32;;;;;;;;;;;19.10;47.60;;;;;;5071613;28;20288;-52
2022/12/30 05:01:58;;;;;;;;;;;19.00;47.90;;;;;;5072545;28;19912;-52
2022/12/30 05:04:23;;;;;;;;;;;18.90;48.00;;;;;;5072627;28;19963;-53
2022/12/30 05:06:49;;;;;;;;;;;18.90;48.20;;;;;;5073808;28;19913;-53
2022/12/30 05:09:14;;;;;;;;;;;18.80;48.20;;;;;;5072519;28;19923;-54
2022/12/30 05:11:39;;;;;;;;;;;18.80;48.40;;;;;;5073611;28;19908;-52
2022/12/30 05:14:05;;;;;;;;;;;18.90;48.30;;;;;;5073161;28;19962;-52
2022/12/30 05:16:30;;;;;;;;;;;18.90;48.00;;;;;;5073274;28;19916;-52
2022/12/30 05:18:56;;;;;;;;;;;18.90;48.00;;;;;;5071179;28;19915;-52
2022/12/30 05:21:21;;;;;;;;;;;19.00;47.80;;;;;;5071874;28;19989;-53
2022/12/30 05:26:31;;;;;;;;;;;19.00;47.70;;;;;;5073008;28;20280;-53
2022/12/30 05:28:56;;;;;;;;;;;19.10;47.70;;;;;;5072759;28;19913;-52
2022/12/30 05:31:21;;;;;;;;;;;19.00;47.70;;;;;;5073343;28;20421;-52
2022/12/30 05:33:47;;;;;;;;;;;19.00;47.70;;;;;;5073117;28;20376;-52
2022/12/30 05:36:12;;;;;;;;;;;19.00;47.90;;;;;;5073452;28;19957;-52
2022/12/30 05:38:38;;;;;;;;;;;18.90;47.90;;;;;;5073163;28;19912;-52
2022/12/30 05:41:03;;;;;;;;;;;18.90;48.00;;;;;;5072825;28;19973;-54
2022/12/30 05:43:29;;;;;;;;;;;18.80;48.00;;;;;;5068486;28;20396;-52
2022/12/30 05:45:54;;;;;;;;;;;18.80;48.10;;;;;;5072002;28;19912;-53
2022/12/30 05:48:20;;;;;;;;;;;18.80;48.30;;;;;;5070202;28;19926;-52
2022/12/30 05:50:48;;;;;;;;;;;18.70;48.30;;;;;;5071630;28;20287;-54
2022/12/30 05:53:14;;;;;;;;;;;18.70;48.30;;;;;;5071144;28;20643;-53
2022/12/30 05:55:39;;;;;;;;;;;18.70;48.20;;;;;;5068645;28;19917;-53
2022/12/30 05:58:04;;;;;;;;;;;18.80;48.30;;;;;;5057218;28;20582;-53
2022/12/30 06:00:30;;;;;;;;;;;18.80;48.30;;;;;;5072103;28;20007;-53
2022/12/30 06:02:55;;;;;;;;;;;18.70;48.20;;;;;;5070778;28;19964;-53
2022/12/30 06:05:21;;;;;;;;;;;18.80;48.30;;;;;;5060131;28;20292;-53
2022/12/30 06:07:46;;;;;;;;;;;18.80;48.20;;;;;;5072323;28;19947;-53
2022/12/30 06:10:12;;;;;;;;;;;18.90;48.80;;;;;;5069932;28;19912;-53
2022/12/30 06:12:37;;;;;;;;;;;18.80;48.00;;;;;;5070742;28;19912;-53
2022/12/30 06:15:03;;;;;;;;;;;18.90;47.70;;;;;;5069372;28;19924;-52
2022/12/30 06:17:28;;;;;;;;;;;18.90;47.90;;;;;;5056997;28;19919;-54
2022/12/30 06:19:54;;;;;;;;;;;18.90;47.90;;;;;;5070747;28;19959;-51
2022/12/30 06:22:19;;;;;;;;;;;18.90;47.70;;;;;;5071248;28;20296;-52
2022/12/30 06:24:44;;;;;;;;;;;18.90;47.70;;;;;;5067775;28;20384;-54
2022/12/30 06:27:10;;;;;;;;;;;19.00;47.70;;;;;;5065405;28;20283;-52
2022/12/30 06:29:35;;;;;;;;;;;19.00;47.60;;;;;;5071380;28;20368;-52
2022/12/30 06:32:01;;;;;;;;;;;19.00;47.70;;;;;;5069331;28;19920;-52
2022/12/30 06:34:26;;;;;;;;;;;19.00;47.60;;;;;;5071421;28;19908;-53
2022/12/30 06:36:52;;;;;;;;;;;19.00;47.40;;;;;;5071077;28;19913;-53
2022/12/30 06:39:17;;;;;;;;;;;19.00;47.70;;;;;;5071367;28;19912;-52
2022/12/30 06:41:42;;;;;;;;;;;19.00;47.70;;;;;;5071368;28;19916;-52
2022/12/30 06:44:08;;;;;;;;;;;18.90;47.60;;;;;;5067744;28;19917;-53
2022/12/30 06:46:33;;;;;;;;;;;18.90;47.70;;;;;;5071045;28;20295;-52
2022/12/30 06:48:59;;;;;;;;;;;18.90;47.80;;;;;;5068378;28;19962;-52
2022/12/30 06:51:24;;;;;;;;;;;18.90;47.70;;;;;;5070909;28;19954;-52
2022/12/30 06:53:50;;;;;;;;;;;18.90;47.70;;;;;;5063503;28;19920;-52
2022/12/30 06:56:15;;;;;;;;;;;18.90;47.70;;;;;;5068056;28;19912;-52
2022/12/30 06:58:40;;;;;;;;;;;18.90;47.80;;;;;;5068324;28;20053;-52
2022/12/30 07:01:06;;;;;;;;;;;18.90;47.70;;;;;;5066246;28;19916;-53
2022/12/30 07:03:31;;;;;;;;;;;18.90;47.70;;;;;;5069047;28;19916;-52
2022/12/30 07:05:57;;;;;;;;;;;18.90;47.70;;;;;;5076310;28;19931;-52
2022/12/30 07:08:22;;;;;;;;;;;18.90;48.20;;;;;;5070230;28;19912;-52
2022/12/30 07:10:48;;;;;;;;;;;18.90;47.60;;;;;;5070469;28;19920;-52
2022/12/30 07:13:13;;;;;;;;;;;18.90;47.70;;;;;;5074197;28;19919;-54
2022/12/30 07:15:39;;;;;;;;;;;18.90;47.80;;;;;;5071436;28;19916;-54
2022/12/30 07:18:05;;;;;;;;;;;18.80;47.80;;;;;;5072266;28;19919;-53
2022/12/30 07:20:30;;;;;;;;;;;18.80;47.90;;;;;;5061711;28;19974;-52
2022/12/30 07:22:55;;;;;;;;;;;18.80;48.00;;;;;;5054746;28;20011;-53
2022/12/30 07:25:21;;;;;;;;;;;18.70;48.00;;;;;;5057868;28;19920;-53
2022/12/30 07:27:46;;;;;;;;;;;18.70;47.90;;;;;;5071438;28;19908;-53
2022/12/30 07:30:12;;;;;;;;;;;18.60;48.10;;;;;;5071886;28;19908;-53
2022/12/30 07:32:37;;;;;;;;;;;18.70;48.00;;;;;;5072059;28;19957;-52
2022/12/30 07:35:07;;;;;;;;;;;18.70;48.20;;;;;;5075519;28;19934;-53
2022/12/30 07:37:33;;;;;;;;;;;18.70;48.10;;;;;;5075958;28;20050;-53
2022/12/30 07:39:58;;;;;;;;;;;18.70;48.10;;;;;;5074656;28;19966;-53
2022/12/30 07:42:23;;;;;;;;;;;18.70;48.10;;;;;;5075470;28;19928;-53
2022/12/30 07:44:49;;;;;;;;;;;18.70;48.10;;;;;;5062614;28;19926;-54
2022/12/30 07:47:14;;;;;;;;;;;18.70;47.80;;;;;;5073493;28;19995;-53
2022/12/30 07:49:40;;;;;;;;;;;18.70;48.00;;;;;;5073781;28;19970;-53
2022/12/30 07:52:06;;;;;;;;;;;18.80;47.80;;;;;;5073272;28;19912;-53
2022/12/30 07:54:31;;;;;;;;;;;18.80;47.70;;;;;;5074424;28;19974;-53
2022/12/30 07:56:57;;;;;;;;;;;18.90;47.60;;;;;;5071743;28;19913;-53
2022/12/30 07:59:22;;;;;;;;;;;18.90;47.50;;;;;;5073493;28;19939;-53
2022/12/30 08:01:47;;;;;;;;;;;18.90;47.70;;;;;;5074184;28;20002;-53
2022/12/30 08:04:13;;;;;;;;;;;18.90;47.50;;;;;;5073630;28;19975;-54
2022/12/30 08:06:38;;;;;;;;;;;18.80;47.80;;;;;;5074349;28;19913;-54
2022/12/30 08:09:04;;;;;;;;;;;18.70;47.70;;;;;;5072978;28;19926;-53
2022/12/30 08:11:29;;;;;;;;;;;18.70;47.80;;;;;;5098046;28;19913;-53
2022/12/30 08:13:55;;;;;;;;;;;18.70;47.80;;;;;;5069692;28;19921;-53
2022/12/30 08:16:20;;;;;;;;;;;18.60;48.00;;;;;;5069449;28;19999;-53
2022/12/30 08:18:46;;;;;;;;;;;18.70;48.10;;;;;;5072765;28;20369;-53
2022/12/30 08:21:12;;;;;;;;;;;18.60;48.80;;;;;;5061637;28;19928;-53
2022/12/30 08:23:38;;;;;;;;;;;18.60;48.20;;;;;;5063205;28;19966;-53
2022/12/30 08:26:06;;;;;;;;;;;18.60;48.10;;;;;;5071526;28;19959;-54
2022/12/30 08:28:32;;;;;;;;;;;18.70;48.00;;;;;;5070309;28;19920;-53
2022/12/30 08:30:57;;;;;;;;;;;18.70;47.80;;;;;;5073237;28;19912;-53
2022/12/30 08:33:23;;;;;;;;;;;18.70;47.70;;;;;;5069522;28;19913;-53
2022/12/30 08:35:48;;;;;;;;;;;18.80;47.70;;;;;;5069032;28;19927;-53
2022/12/30 08:38:13;;;;;;;;;;;18.80;47.60;;;;;;5073088;28;19942;-53
2022/12/30 08:40:39;;;;;;;;;;;18.80;47.60;;;;;;5069415;28;19958;-53
2022/12/30 08:43:04;;;;;;;;;;;18.90;47.50;;;;;;5073227;28;19926;-53
2022/12/30 08:45:30;;;;;;;;;;;18.90;47.40;;;;;;5071823;28;19912;-54
2022/12/30 08:47:55;;;;;;;;;;;18.90;47.50;;;;;;5072985;28;19919;-53
2022/12/30 08:50:21;;;;;;;;;;;18.90;47.50;;;;;;5072200;28;19959;-53
2022/12/30 08:52:46;;;;;;;;;;;18.70;47.50;;;;;;5071245;28;19912;-53
2022/12/30 08:55:12;;;;;;;;;;;18.70;47.80;;;;;;5069622;28;19958;-53
2022/12/30 08:57:38;;;;;;;;;;;18.60;48.00;;;;;;5074368;28;19912;-53
2022/12/30 09:00:03;;;;;;;;;;;18.50;48.20;;;;;;5071801;28;20293;-54
2022/12/30 09:02:29;;;;;;;;;;;18.50;48.30;;;;;;5073733;28;19916;-53
2022/12/30 09:04:54;;;;;;;;;;;18.50;48.40;;;;;;5073707;28;20463;-53
2022/12/30 09:07:20;;;;;;;;;;;18.60;48.30;;;;;;5068414;28;19944;-53
2022/12/30 09:09:45;;;;;;;;;;;18.60;48.20;;;;;;5066369;28;20352;-53
2022/12/30 09:12:11;;;;;;;;;;;18.70;48.20;;;;;;5068661;28;20349;-54
2022/12/30 09:14:36;;;;;;;;;;;18.70;48.00;;;;;;5065106;28;19918;-53
2022/12/30 09:17:01;;;;;;;;;;;18.70;47.90;;;;;;5094364;28;19915;-53
2022/12/30 09:19:27;;;;;;;;;;;18.70;48.10;;;;;;5079345;28;19909;-53
2022/12/30 09:21:52;;;;;;;;;;;18.70;48.00;;;;;;5053416;28;19927;-53
2022/12/30 09:24:18;;;;;;;;;;;18.70;48.20;;;;;;5053572;28;19928;-54
2022/12/30 09:26:43;;;;;;;;;;;18.70;48.20;;;;;;5053259;28;20368;-53
2022/12/30 09:29:09;;;;;;;;;;;18.70;48.10;;;;;;5053112;28;19917;-52
2022/12/30 09:31:34;;;;;;;;;;;18.70;48.00;;;;;;5062139;28;19920;-52
2022/12/30 09:34:00;;;;;;;;;;;18.70;47.90;;;;;;5073509;28;19916;-53
2022/12/30 09:36:25;;;;;;;;;;;18.70;48.10;;;;;;5073355;28;19913;-52
2022/12/30 09:38:50;;;;;;;;;;;18.70;48.00;;;;;;5073168;28;19912;-52
2022/12/30 09:44:32;;;;;;;;;;;18.70;48.00;;;;;;5074502;28;19923;-52
2022/12/30 09:47:03;;;;;;;;;;;18.80;47.90;;;;;;5072329;28;20003;-53
2022/12/30 09:49:31;;;;;;;;;;;18.70;48.20;;;;;;5071217;28;19920;-54
2022/12/30 09:51:58;;;;;;;;;;;18.70;48.10;;;;;;5065236;28;20303;-53
2022/12/30 09:54:24;;;;;;;;;;;18.80;48.30;;;;;;5062123;28;19961;-52
2022/12/30 09:56:50;;;;;;;;;;;19.20;47.90;;;;;;5064744;28;20431;-52
2022/12/30 09:59:20;;;;;;;;;;;19.60;47.10;;;;;;5065729;28;19919;-51
2022/12/30 10:01:49;;;;;;;;;;;20.10;46.20;;;;;;5056129;28;20103;-51
2022/12/30 10:04:18;;;;;;;;;;;20.50;45.40;;;;;;5066199;28;20292;-52
2022/12/30 10:06:47;;;;;;;;;;;20.80;44.90;;;;;;5062975;28;19916;-52
2022/12/30 10:09:31;;;;;;;;;;;20.70;44.80;;;;;;5094840;28;20022;-53
2022/12/30 10:12:01;;;;;;;;;;;20.80;44.70;;;;;;5062321;28;19920;-53
2022/12/30 10:14:32;;;;;;;;;;;21.10;43.90;;;;;;5065603;28;20396;-52
2022/12/30 10:16:58;;;;;;;;;;;21.60;43.20;;;;;;5097105;28;20630;-53
2022/12/30 10:19:26;;;;;;;;;;;22.10;42.50;;;;;;5061880;28;20015;-51
2022/12/30 10:21:57;;;;;;;;;;;22.30;42.30;;;;;;5063379;28;19920;-54
2022/12/30 10:24:42;;;;;;;;;;;22.30;42.50;;;;;;5079739;28;19925;-53
2022/12/30 10:27:13;;;;;;;;;;;22.30;42.70;;;;;;5063635;28;21310;-53
2022/12/30 10:29:38;;;;;;;;;;;22.40;42.70;;;;;;5067809;28;19959;-52
2022/12/30 10:32:13;;;;;;;;;;;22.60;42.40;;;;;;5064204;28;19960;-53
2022/12/30 10:34:38;;;;;;;;;;;22.80;42.20;;;;;;5061137;28;19917;-52
2022/12/30 10:37:04;;;;;;;;;;;23.00;41.90;;;;;;5061121;28;20002;-52
2022/12/30 10:39:38;;;;;;;;;;;23.20;41.80;;;;;;5062717;28;19912;-50
2022/12/30 10:42:06;;;;;;;;;;;23.20;41.60;;;;;;5063814;28;20368;-51
2022/12/30 10:44:43;;;;;;;;;;;23.30;41.60;;;;;;5060939;28;20295;-51
2022/12/30 10:47:24;;;;;;;;;;;23.40;41.40;;;;;;5065329;28;19995;-52
2022/12/30 10:49:53;;;;;;;;;;;23.60;41.30;;;;;;5062480;28;20443;-52
2022/12/30 10:52:18;;;;;;;;;;;23.60;41.20;;;;;;5057994;28;19967;-52
2022/12/30 10:54:44;;;;;;;;;;;23.60;41.10;;;;;;5056765;28;20411;-52
2022/12/30 10:57:16;;;;;;;;;;;23.70;41.10;;;;;;5093188;28;20296;-52
2022/12/30 10:59:41;;;;;;;;;;;23.80;41.10;;;;;;5062078;28;19912;-52
2022/12/30 11:02:17;;;;;;;;;;;23.80;41.10;;;;;;5094001;28;19955;-52
2022/12/30 11:04:43;;;;;;;;;;;23.70;41.10;;;;;;5094307;28;19923;-52
2022/12/30 11:07:10;;;;;;;;;;;23.70;41.30;;;;;;5064620;28;20124;-52
2022/12/30 11:09:35;;;;;;;;;;;23.70;41.00;;;;;;5068448;28;19966;-52
2022/12/30 11:14:46;;;;;;;;;;;23.60;41.50;;;;;;5074874;28;20326;-53
2022/12/30 11:17:15;;;;;;;;;;;23.50;41.60;;;;;;5070457;28;19920;-52
2022/12/30 11:19:41;;;;;;;;;;;23.50;41.60;;;;;;5065019;28;19917;-52
2022/12/30 11:22:06;;;;;;;;;;;23.50;41.60;;;;;;5069665;28;19947;-53
2022/12/30 11:24:31;;;;;;;;;;;23.60;41.50;;;;;;5072347;28;19923;-52
2022/12/30 11:26:57;;;;;;;;;;;23.60;41.50;;;;;;5068960;28;19913;-53
2022/12/30 11:29:22;;;;;;;;;;;23.70;41.50;;;;;;5066099;28;19924;-53
2022/12/30 11:31:50;;;;;;;;;;;23.80;41.10;;;;;;5074138;28;19912;-52
2022/12/30 11:34:27;;;;;;;;;;;23.70;41.20;;;;;;5075584;28;19948;-52
2022/12/30 11:36:52;;;;;;;;;;;23.80;41.20;;;;;;5074384;28;20067;-52
2022/12/30 11:39:25;;;;;;;;;;;23.80;41.10;;;;;;5074991;28;19957;-52
2022/12/30 11:41:54;;;;;;;;;;;23.80;41.20;;;;;;5070639;28;20012;-52
2022/12/30 11:44:23;;;;;;;;;;;23.80;41.10;;;;;;5068023;28;19927;-52
2022/12/30 11:46:50;;;;;;;;;;;23.70;41.30;;;;;;5067167;28;20364;-50
2022/12/30 11:49:15;;;;;;;;;;;23.70;41.30;;;;;;5066800;28;19919;-53
2022/12/30 11:51:41;;;;;;;;;;;23.70;41.30;;;;;;5066114;28;19913;-53
2022/12/30 11:54:09;;;;;;;;;;;23.70;41.20;;;;;;5064807;28;19928;-52
2022/12/30 11:56:35;;;;;;;;;;;23.70;41.10;;;;;;5065878;28;19920;-53
2022/12/30 11:59:07;;;;;;;;;;;23.70;41.10;;;;;;5066680;28;19920;-53
2022/12/30 12:01:40;;;;;;;;;;;23.70;41.30;;;;;;5096097;28;19948;-52
2022/12/30 12:04:05;;;;;;;;;;;23.70;41.10;;;;;;5062107;28;19920;-55
2022/12/30 12:06:39;;;;;;;;;;;23.70;41.10;;;;;;5066430;28;19919;-53
2022/12/30 12:09:07;;;;;;;;;;;23.70;41.10;;;;;;5098781;27;19921;-53
2022/12/30 12:11:35;;;;;;;;;;;23.70;41.00;;;;;;5067064;28;19966;-53
2022/12/30 12:14:05;;;;;;;;;;;23.80;41.00;;;;;;5064346;28;19913;-53
2022/12/30 12:16:33;;;;;;;;;;;23.80;40.90;;;;;;5053334;28;19912;-53
2022/12/30 12:19:06;;;;;;;;;;;23.80;40.80;;;;;;5064378;28;19991;-53
2022/12/30 12:21:32;;;;;;;;;;;23.80;40.80;;;;;;5063730;28;19929;-52
2022/12/30 12:24:03;;;;;;;;;;;23.80;40.70;;;;;;5065859;28;19923;-53
2022/12/30 12:26:30;;;;;;;;;;;23.80;40.60;;;;;;5065738;28;19913;-52
2022/12/30 12:28:56;;;;;;;;;;;23.80;40.70;;;;;;5099322;28;19913;-53
2022/12/30 12:31:40;;;;;;;;;;;23.70;40.70;;;;;;5096237;28;19974;-54
2022/12/30 12:34:10;;;;;;;;;;;23.80;40.70;;;;;;5071365;28;19958;-52
2022/12/30 12:36:44;;;;;;;;;;;23.80;40.50;;;;;;5074847;28;19909;-53
2022/12/30 12:39:11;;;;;;;;;;;23.80;40.30;;;;;;5074238;28;20384;-53
2022/12/30 12:41:36;;;;;;;;;;;23.80;40.30;;;;;;5059968;28;20280;-52
2022/12/30 12:44:04;;;;;;;;;;;23.90;40.40;;;;;;5069936;28;20011;-53
2022/12/30 12:46:48;;;;;;;;;;;23.90;40.30;;;;;;5073259;28;19916;-53
2022/12/30 12:49:18;;;;;;;;;;;23.90;40.20;;;;;;5072490;28;19912;-52
2022/12/30 12:51:51;;;;;;;;;;;23.90;40.20;;;;;;5073411;28;19927;-55
2022/12/30 12:54:25;;;;;;;;;;;23.80;40.40;;;;;;5073392;28;19919;-52
2022/12/30 12:57:08;;;;;;;;;;;23.80;41.00;;;;;;5067950;28;19916;-54
2022/12/30 12:59:42;;;;;;;;;;;23.80;40.30;;;;;;5065900;28;19927;-54
2022/12/30 13:02:19;;;;;;;;;;;23.90;40.20;;;;;;5067209;28;19924;-54
2022/12/30 13:04:53;;;;;;;;;;;24.00;40.00;;;;;;5068134;28;20384;-54
2022/12/30 13:07:26;;;;;;;;;;;23.90;40.00;;;;;;5069789;28;19979;-54
2022/12/30 13:10:04;;;;;;;;;;;23.80;40.40;;;;;;5096348;28;19916;-54
2022/12/30 13:12:38;;;;;;;;;;;23.70;40.50;;;;;;5065248;28;19955;-53
2022/12/30 13:15:26;;;;;;;;;;;23.80;40.40;;;;;;5070765;28;20342;-54
2022/12/30 13:17:52;;;;;;;;;;;23.90;40.30;;;;;;5069810;28;19909;-54
2022/12/30 13:20:19;;;;;;;;;;;23.90;40.30;;;;;;5067934;28;19912;-54
2022/12/30 13:22:44;;;;;;;;;;;23.80;40.30;;;;;;5065701;28;19956;-54
2022/12/30 13:25:20;;;;;;;;;;;23.90;40.30;;;;;;5069527;28;20028;-52
2022/12/30 13:27:45;;;;;;;;;;;23.90;40.20;;;;;;5069455;28;19935;-54
2022/12/30 13:30:15;;;;;;;;;;;23.90;40.20;;;;;;5065112;28;20384;-54
2022/12/30 13:32:49;;;;;;;;;;;23.90;40.80;;;;;;5103662;28;20292;-52
2022/12/30 13:35:17;;;;;;;;;;;23.80;40.30;;;;;;5073037;28;19967;-52
2022/12/30 13:37:47;;;;;;;;;;;23.70;40.40;;;;;;5073068;28;20253;-51
2022/12/30 13:40:14;;;;;;;;;;;23.70;40.60;;;;;;5071547;28;19953;-53
2022/12/30 13:42:51;;;;;;;;;;;23.70;40.50;;;;;;5072838;28;19908;-52
2022/12/30 13:45:20;;;;;;;;;;;23.80;40.60;;;;;;5065908;28;19923;-52
2022/12/30 13:47:45;;;;;;;;;;;23.80;41.10;;;;;;5098148;28;19916;-52
2022/12/30 13:50:15;;;;;;;;;;;23.80;40.50;;;;;;5064435;28;20342;-52
2022/12/30 13:52:45;;;;;;;;;;;23.90;40.40;;;;;;5061671;28;19936;-52
2022/12/30 13:55:15;;;;;;;;;;;23.90;40.20;;;;;;5063751;28;19928;-52
2022/12/30 13:57:40;;;;;;;;;;;23.90;40.50;;;;;;5096377;27;19917;-55
2022/12/30 14:00:12;;;;;;;;;;;23.80;39.50;;;;;;5065173;28;20272;-52
2022/12/30 14:02:43;;;;;;;;;;;23.80;39.40;;;;;;5065482;28;19919;-52
2022/12/30 14:05:28;;;;;;;;;;;23.80;39.20;;;;;;5063260;28;19916;-52
2022/12/30 14:07:53;;;;;;;;;;;23.80;39.10;;;;;;5066764;28;19912;-53
2022/12/30 14:10:19;;;;;;;;;;;23.80;39.20;;;;;;5064901;28;19923;-53
2022/12/30 14:12:48;;;;;;;;;;;23.70;39.90;;;;;;5062889;28;22363;-53
2022/12/30 14:15:33;;;;;;;;;;;23.80;39.20;;;;;;5064289;28;19958;-54
2022/12/30 14:17:59;;;;;;;;;;;23.80;39.10;;;;;;5062565;28;19944;-52
2022/12/30 14:20:25;;;;;;;;;;;23.90;39.00;;;;;;5059878;28;19920;-53
2022/12/30 14:22:55;;;;;;;;;;;23.90;38.90;;;;;;5093128;28;19954;-53
2022/12/30 14:25:25;;;;;;;;;;;24.00;38.80;;;;;;5062459;28;19916;-53
2022/12/30 14:28:09;;;;;;;;;;;24.00;38.70;;;;;;5061685;28;19917;-52
2022/12/30 14:30:36;;;;;;;;;;;24.10;38.50;;;;;;5062446;28;20005;-52
2022/12/30 14:33:04;;;;;;;;;;;24.10;38.30;;;;;;5090730;28;19919;-52
2022/12/30 14:35:29;;;;;;;;;;;24.10;38.30;;;;;;5095920;28;19973;-53
2022/12/30 14:38:13;;;;;;;;;;;24.10;38.10;;;;;;5060208;28;19921;-54
2022/12/30 14:40:39;;;;;;;;;;;24.20;38.20;;;;;;5061120;28;20002;-52
2022/12/30 14:43:04;;;;;;;;;;;24.20;38.10;;;;;;5062019;28;19988;-53
2022/12/30 14:45:30;;;;;;;;;;;24.10;37.90;;;;;;5065184;28;20459;-54
2022/12/30 14:47:55;;;;;;;;;;;24.10;37.90;;;;;;5063233;28;20011;-54
2022/12/30 14:50:25;;;;;;;;;;;24.10;37.90;;;;;;5095074;28;19912;-54
2022/12/30 14:52:53;;;;;;;;;;;24.10;37.90;;;;;;5094588;28;19912;-54
2022/12/30 14:55:23;;;;;;;;;;;24.10;37.80;;;;;;5063354;28;19923;-54
2022/12/30 14:57:56;;;;;;;;;;;24.20;38.00;;;;;;5063272;28;21463;-53
2022/12/30 15:00:24;;;;;;;;;;;24.20;38.00;;;;;;5071782;28;19966;-54
2022/12/30 15:02:51;;;;;;;;;;;24.20;38.00;;;;;;5103092;28;19958;-53
2022/12/30 15:05:18;;;;;;;;;;;24.20;38.00;;;;;;5071038;28;20275;-54
2022/12/30 15:07:45;;;;;;;;;;;24.20;38.00;;;;;;5071977;28;19916;-54